createdAt,value
2019-02-28T00:00:13.316Z,32.23
2019-02-28T00:02:41.484Z,32.07
2019-02-28T00:05:09.922Z,30.93
2019-02-28T00:07:38.249Z,32.60
2019-02-28T00:10:09.106Z,38.15
2019-02-28T00:12:37.252Z,34.13
2019-02-28T00:15:06.971Z,32.63
2019-02-28T00:17:35.152Z,33.97
2019-02-28T00:20:04.349Z,33.90
2019-02-28T00:22:32.604Z,33.13
2019-02-28T00:25:01.126Z,35.37
2019-02-28T00:27:30.575Z,32.57
2019-02-28T00:29:58.865Z,33.50
2019-02-28T00:32:27.279Z,35.73
2019-02-28T00:34:55.624Z,35.77
2019-02-28T00:37:24.703Z,32.97
2019-02-28T00:39:53.589Z,34.87
2019-02-28T00:42:22.006Z,32.43
2019-02-28T00:44:50.148Z,33.00
2019-02-28T00:47:18.315Z,34.43
2019-02-28T00:49:46.452Z,34.57
2019-02-28T00:52:14.591Z,34.43
2019-02-28T00:54:44.350Z,32.73
2019-02-28T00:57:12.548Z,32.87
2019-02-28T00:59:40.691Z,35.10
2019-02-28T01:02:09.264Z,33.07
2019-02-28T01:04:37.404Z,34.43
2019-02-28T01:07:05.547Z,31.50
2019-02-28T01:09:33.711Z,33.33
2019-02-28T01:12:01.926Z,34.60
2019-02-28T01:14:32.400Z,33.53
2019-02-28T01:17:00.124Z,33.10
2019-02-28T01:19:28.276Z,34.30
2019-02-28T01:21:56.421Z,32.40
2019-02-28T01:24:24.773Z,33.53
2019-02-28T01:26:52.918Z,34.40
2019-02-28T01:29:21.060Z,32.83
2019-02-28T01:31:49.236Z,32.50
2019-02-28T01:34:17.440Z,33.30
2019-02-28T01:36:45.959Z,33.90
2019-02-28T01:39:15.396Z,34.70
2019-02-28T01:41:45.152Z,42.85
2019-02-28T01:44:13.491Z,35.07
2019-02-28T01:46:41.660Z,33.13
2019-02-28T01:49:09.799Z,35.43
2019-02-28T01:51:37.935Z,33.63
2019-02-28T01:54:06.112Z,35.17
2019-02-28T01:56:36.716Z,33.80
2019-02-28T01:59:04.034Z,36.80
2019-02-28T02:01:32.206Z,35.73
2019-02-28T02:04:00.361Z,38.17
2019-02-28T02:06:28.496Z,36.17
2019-02-28T02:08:56.838Z,38.87
2019-02-28T02:11:26.697Z,38.50
2019-02-28T02:13:54.773Z,37.20
2019-02-28T02:16:26.773Z,36.47
2019-02-28T02:18:52.729Z,40.77
2019-02-28T02:21:22.076Z,38.00
2019-02-28T02:23:52.993Z,39.37
2019-02-28T02:26:20.058Z,40.53
2019-02-28T02:28:48.203Z,42.97
2019-02-28T02:31:16.379Z,41.17
2019-02-28T02:33:50.893Z,40.63
2019-02-28T02:36:16.360Z,41.07
2019-02-28T02:38:44.425Z,38.77
2019-02-28T02:41:12.570Z,41.13
2019-02-28T02:43:40.702Z,39.40
2019-02-28T02:46:08.965Z,40.10
2019-02-28T02:48:38.472Z,41.13
2019-02-28T02:51:10.645Z,42.23
2019-02-28T02:53:41.414Z,37.70
2019-02-28T02:56:06.764Z,39.37
2019-02-28T02:58:34.905Z,40.57
2019-02-28T03:01:03.076Z,40.73
2019-02-28T03:03:31.213Z,40.53
2019-02-28T03:05:59.356Z,42.30
2019-02-28T03:08:27.533Z,39.03
2019-02-28T03:10:55.683Z,41.17
2019-02-28T03:13:23.821Z,40.63
2019-02-28T03:15:51.991Z,39.83
2019-02-28T03:18:20.703Z,39.23
2019-02-28T03:20:49.916Z,39.07
2019-02-28T03:23:20.394Z,42.00
2019-02-28T03:25:48.833Z,41.43
2019-02-28T03:28:19.124Z,41.57
2019-02-28T03:30:47.321Z,42.03
2019-02-28T03:33:27.386Z,42.30
2019-02-28T03:35:45.441Z,42.37
2019-02-28T03:38:13.598Z,42.17
2019-02-28T03:40:41.889Z,40.60
2019-02-28T03:43:11.197Z,43.10
2019-02-28T03:45:39.352Z,42.27
2019-02-28T03:48:07.770Z,42.07
2019-02-28T03:50:35.901Z,39.63
2019-02-28T03:53:04.126Z,39.50
2019-02-28T03:55:40.324Z,42.03
2019-02-28T03:58:05.533Z,40.23
2019-02-28T04:00:34.235Z,40.50
2019-02-28T04:03:03.052Z,42.30
2019-02-28T04:05:31.213Z,42.43
2019-02-28T04:07:59.359Z,43.50
2019-02-28T04:10:27.497Z,40.97
2019-02-28T04:12:56.464Z,42.83
2019-02-28T04:15:24.636Z,44.70
2019-02-28T04:17:53.097Z,44.27
2019-02-28T04:20:21.489Z,42.97
2019-02-28T04:22:49.879Z,47.33
2019-02-28T04:25:22.947Z,44.43
2019-02-28T04:27:47.832Z,42.23
2019-02-28T04:30:16.125Z,41.33
2019-02-28T04:32:44.286Z,42.73
2019-02-28T04:35:12.444Z,43.90
2019-02-28T04:37:44.818Z,43.87
2019-02-28T04:40:11.166Z,40.83
2019-02-28T04:42:39.308Z,43.87
2019-02-28T04:45:09.165Z,42.90
2019-02-28T04:47:40.451Z,41.27
2019-02-28T04:50:08.059Z,39.70
2019-02-28T04:52:36.232Z,40.60
2019-02-28T04:55:05.144Z,40.13
2019-02-28T04:57:33.288Z,39.10
2019-02-28T05:00:01.469Z,41.47
2019-02-28T05:02:29.614Z,43.30
2019-02-28T05:04:59.384Z,48.87
2019-02-28T05:07:29.691Z,43.13
2019-02-28T05:09:57.340Z,43.50
2019-02-28T05:12:25.480Z,42.83
2019-02-28T05:14:55.289Z,42.73
2019-02-28T05:17:23.439Z,43.17
2019-02-28T05:19:51.700Z,42.87
2019-02-28T05:22:19.871Z,43.63
2019-02-28T05:24:48.008Z,41.90
2019-02-28T05:27:16.168Z,40.40
2019-02-28T05:29:44.838Z,43.40
2019-02-28T05:32:13.367Z,41.93
2019-02-28T05:34:41.508Z,40.33
2019-02-28T05:37:12.600Z,43.97
2019-02-28T05:39:39.766Z,42.77
2019-02-28T05:42:07.896Z,44.33
2019-02-28T05:44:37.492Z,43.27
2019-02-28T05:47:08.435Z,46.27
2019-02-28T05:49:36.587Z,46.13
2019-02-28T05:52:05.062Z,47.07
2019-02-28T05:54:34.812Z,45.00
2019-02-28T05:57:04.607Z,47.20
2019-02-28T05:59:32.783Z,45.30
2019-02-28T06:02:00.923Z,44.30
2019-02-28T06:04:29.060Z,45.03
2019-02-28T06:06:58.087Z,44.37
2019-02-28T06:09:26.224Z,44.50
2019-02-28T06:11:54.434Z,44.37
2019-02-28T06:14:26.640Z,46.43
2019-02-28T06:16:52.696Z,45.70
2019-02-28T06:19:22.013Z,44.73
2019-02-28T06:21:50.196Z,47.03
2019-02-28T06:24:18.341Z,48.30
2019-02-28T06:26:47.404Z,45.80
2019-02-28T06:29:15.575Z,46.93
2019-02-28T06:31:45.558Z,48.10
2019-02-28T06:34:13.612Z,46.93
2019-02-28T06:36:41.789Z,47.17
2019-02-28T06:39:10.034Z,43.87
2019-02-28T06:41:39.985Z,46.90
2019-02-28T06:44:08.236Z,48.83
2019-02-28T06:46:39.836Z,48.10
2019-02-28T06:49:08.201Z,46.87
2019-02-28T06:51:36.367Z,47.63
2019-02-28T06:54:07.901Z,50.97
2019-02-28T06:56:36.168Z,49.67
2019-02-28T06:59:04.905Z,48.40
2019-02-28T07:01:33.828Z,50.47
2019-02-28T07:04:01.960Z,51.97
2019-02-28T07:06:30.228Z,53.90
2019-02-28T07:09:01.889Z,54.40
2019-02-28T07:11:28.156Z,58.23
2019-02-28T07:13:56.330Z,55.90
2019-02-28T07:16:24.538Z,58.23
2019-02-28T07:18:53.786Z,58.77
2019-02-28T07:21:22.656Z,77.47
2019-02-28T07:23:51.005Z,64.27
2019-02-28T07:26:19.651Z,65.23
2019-02-28T07:28:48.124Z,64.63
2019-02-28T07:31:16.278Z,66.90
2019-02-28T07:33:45.250Z,68.17
2019-02-28T07:36:13.797Z,67.07
2019-02-28T07:38:41.934Z,66.27
2019-02-28T07:41:11.719Z,66.80
2019-02-28T07:43:40.186Z,70.63
2019-02-28T07:46:08.905Z,69.17
2019-02-28T07:48:37.208Z,68.13
2019-02-28T07:51:05.518Z,72.40
2019-02-28T07:53:33.654Z,69.43
2019-02-28T07:56:03.810Z,71.90
2019-02-28T07:58:33.410Z,73.67
2019-02-28T08:01:02.102Z,73.13
2019-02-28T08:03:30.231Z,73.50
2019-02-28T08:05:58.397Z,71.67
2019-02-28T08:08:27.963Z,73.47
2019-02-28T08:10:56.632Z,72.80
2019-02-28T08:13:24.821Z,74.30
2019-02-28T08:15:53.315Z,69.13
2019-02-28T08:18:22.755Z,71.50
2019-02-28T08:20:51.225Z,72.10
2019-02-28T08:23:19.368Z,70.53
2019-02-28T08:25:47.509Z,67.77
2019-02-28T08:28:15.691Z,68.27
2019-02-28T08:30:43.835Z,71.63
2019-02-28T08:33:12.068Z,74.03
2019-02-28T08:35:40.245Z,71.73
2019-02-28T08:38:10.067Z,73.50
2019-02-28T08:40:38.203Z,73.17
2019-02-28T08:43:06.416Z,76.60
2019-02-28T08:45:34.597Z,75.43
2019-02-28T08:48:02.774Z,76.40
2019-02-28T08:50:31.110Z,76.13
2019-02-28T08:53:00.516Z,75.60
2019-02-28T08:55:29.454Z,75.83
2019-02-28T08:58:04.483Z,75.63
2019-02-28T09:00:31.704Z,72.87
2019-02-28T09:02:57.473Z,75.83
2019-02-28T09:05:27.813Z,76.33
2019-02-28T09:07:55.399Z,73.60
2019-02-28T09:10:24.123Z,73.23
2019-02-28T09:12:52.297Z,73.73
2019-02-28T09:15:20.653Z,73.77
2019-02-28T09:17:48.792Z,73.53
2019-02-28T09:20:17.074Z,73.10
2019-02-28T09:22:45.213Z,72.47
2019-02-28T09:25:21.417Z,76.50
2019-02-28T09:27:46.981Z,75.23
2019-02-28T09:30:32.128Z,77.63
2019-02-28T09:33:00.299Z,75.20
2019-02-28T09:35:28.596Z,76.43
2019-02-28T09:37:56.720Z,78.80
2019-02-28T09:40:25.684Z,76.23
2019-02-28T09:42:54.699Z,74.47
2019-02-28T09:45:23.817Z,75.53
2019-02-28T09:47:51.995Z,78.53
2019-02-28T09:50:22.591Z,78.87
2019-02-28T09:52:50.798Z,78.80
2019-02-28T09:55:19.327Z,78.67
2019-02-28T09:57:53.848Z,76.53
2019-02-28T10:00:18.896Z,76.57
2019-02-28T10:02:47.248Z,74.47
2019-02-28T10:05:15.512Z,72.40
2019-02-28T10:07:43.660Z,72.03
2019-02-28T10:10:13.982Z,70.20
2019-02-28T10:12:43.083Z,66.97
2019-02-28T10:15:13.096Z,63.77
2019-02-28T10:17:42.283Z,60.80
2019-02-28T10:20:12.340Z,60.60
2019-02-28T10:22:40.488Z,61.03
2019-02-28T10:25:09.952Z,63.63
2019-02-28T10:27:38.095Z,58.77
2019-02-28T10:30:07.871Z,56.87
2019-02-28T10:32:36.059Z,54.27
2019-02-28T10:35:04.972Z,54.67
2019-02-28T10:37:33.116Z,53.93
2019-02-28T10:40:01.305Z,51.03
2019-02-28T10:42:29.451Z,50.23
2019-02-28T10:44:57.588Z,48.30
2019-02-28T10:47:29.389Z,43.67
2019-02-28T10:49:58.271Z,42.00
2019-02-28T10:52:30.471Z,40.27
2019-02-28T10:54:57.852Z,39.70
2019-02-28T10:57:28.655Z,37.73
2019-02-28T11:00:32.537Z,39.80
2019-02-28T11:02:30.716Z,41.67
2019-02-28T11:05:00.504Z,41.93
2019-02-28T11:07:37.620Z,43.77
2019-02-28T11:10:07.112Z,44.03
2019-02-28T11:12:35.334Z,45.67
2019-02-28T11:15:03.850Z,46.07
2019-02-28T11:17:34.177Z,51.37
2019-02-28T11:20:02.011Z,53.77
2019-02-28T11:22:31.611Z,58.00
2019-02-28T11:25:00.858Z,57.60
2019-02-28T11:27:29.640Z,56.27
2019-02-28T11:29:57.794Z,59.23
2019-02-28T11:32:26.450Z,61.90
2019-02-28T11:34:55.776Z,63.53
2019-02-28T11:37:23.917Z,59.53
2019-02-28T11:39:52.057Z,58.70
2019-02-28T11:42:20.288Z,60.43
2019-02-28T11:44:48.447Z,56.47
2019-02-28T11:47:16.586Z,58.67
2019-02-28T11:49:44.772Z,58.70
2019-02-28T11:52:12.936Z,55.17
2019-02-28T11:54:41.465Z,57.87
2019-02-28T11:57:10.308Z,54.57
2019-02-28T11:59:38.444Z,55.73
2019-02-28T12:02:06.596Z,56.13
2019-02-28T12:04:37.487Z,59.23
2019-02-28T12:07:04.767Z,57.87
2019-02-28T12:09:32.909Z,58.93
2019-02-28T12:12:01.088Z,53.80
2019-02-28T12:14:30.052Z,50.67
2019-02-28T12:16:58.391Z,47.87
2019-02-28T12:19:28.337Z,47.17
2019-02-28T12:21:56.344Z,46.13
2019-02-28T12:24:24.514Z,37.97
2019-02-28T12:26:53.684Z,36.10
2019-02-28T12:29:22.148Z,34.03
2019-02-28T12:31:50.264Z,33.87
2019-02-28T12:34:18.453Z,32.60
2019-02-28T12:36:49.368Z,30.70
2019-02-28T12:39:17.641Z,28.30
2019-02-28T12:41:45.816Z,27.60
2019-02-28T12:44:15.402Z,25.33
2019-02-28T12:46:43.745Z,25.57
2019-02-28T12:49:11.924Z,22.73
2019-02-28T12:51:42.157Z,22.40
2019-02-28T12:54:10.517Z,22.77
2019-02-28T12:56:40.333Z,20.37
2019-02-28T12:59:09.992Z,20.37
2019-02-28T13:01:38.272Z,18.33
2019-02-28T13:04:06.448Z,16.37
2019-02-28T13:06:34.589Z,16.67
2019-02-28T13:09:03.904Z,16.80
2019-02-28T13:11:32.139Z,15.37
2019-02-28T13:14:02.933Z,13.97
2019-02-28T13:16:30.389Z,13.57
2019-02-28T13:18:58.558Z,13.03
2019-02-28T13:21:26.696Z,11.03
2019-02-28T13:23:55.055Z,10.63
2019-02-28T13:26:24.705Z,10.73
2019-02-28T13:28:54.594Z,10.03
2019-02-28T13:31:25.513Z,9.03
2019-02-28T13:33:53.607Z,9.37
2019-02-28T13:36:22.780Z,8.97
2019-02-28T13:38:54.692Z,8.70
2019-02-28T13:41:26.705Z,8.63
2019-02-28T13:43:54.794Z,7.77
2019-02-28T13:46:24.048Z,8.33
2019-02-28T13:48:52.221Z,9.30
2019-02-28T13:51:20.361Z,8.17
2019-02-28T13:53:48.501Z,8.00
2019-02-28T13:56:18.065Z,7.80
2019-02-28T13:58:46.424Z,8.20
2019-02-28T14:01:14.648Z,8.57
2019-02-28T14:03:46.045Z,7.90
2019-02-28T14:06:18.956Z,7.90
2019-02-28T14:08:46.098Z,6.87
2019-02-28T14:11:12.711Z,6.53
2019-02-28T14:13:41.168Z,6.43
2019-02-28T14:16:09.480Z,6.47
2019-02-28T14:18:37.735Z,8.07
2019-02-28T14:21:05.828Z,6.53
2019-02-28T14:23:33.969Z,5.87
2019-02-28T14:26:02.228Z,6.47
2019-02-28T14:28:32.396Z,5.80
2019-02-28T14:31:00.376Z,6.00
2019-02-28T14:33:28.546Z,5.80
2019-02-28T14:35:56.688Z,5.30
2019-02-28T14:38:26.096Z,4.97
2019-02-28T14:40:54.492Z,5.97
2019-02-28T14:43:22.933Z,4.67
2019-02-28T14:45:51.147Z,5.53
2019-02-28T14:48:19.309Z,5.30
2019-02-28T14:50:50.549Z,4.63
2019-02-28T14:53:17.240Z,3.80
2019-02-28T14:55:45.406Z,5.40
2019-02-28T14:58:13.549Z,5.43
2019-02-28T15:00:42.425Z,4.93
2019-02-28T15:03:14.783Z,5.77
2019-02-28T15:05:43.628Z,4.97
2019-02-28T15:08:14.850Z,6.07
2019-02-28T15:10:42.468Z,4.57
2019-02-28T15:13:11.680Z,4.60
2019-02-28T15:15:40.060Z,5.10
2019-02-28T15:18:10.895Z,5.03
2019-02-28T15:20:38.042Z,4.90
2019-02-28T15:23:06.177Z,4.93
2019-02-28T15:25:34.358Z,4.83
2019-02-28T15:28:04.430Z,4.53
2019-02-28T15:30:36.733Z,4.27
2019-02-28T15:33:07.451Z,4.23
2019-02-28T15:35:35.605Z,4.40
2019-02-28T15:38:05.678Z,5.13
2019-02-28T15:40:51.951Z,5.80
2019-02-28T15:43:20.120Z,4.80
2019-02-28T15:45:48.289Z,4.73
2019-02-28T15:48:16.428Z,5.70
2019-02-28T15:50:44.562Z,4.47
2019-02-28T15:53:15.132Z,5.57
2019-02-28T15:55:42.517Z,4.57
2019-02-28T15:58:11.688Z,4.73
2019-02-28T16:00:42.405Z,5.13
2019-02-28T16:03:13.436Z,5.67
2019-02-28T16:05:44.132Z,4.93
2019-02-28T16:08:12.697Z,5.47
2019-02-28T16:10:52.620Z,5.57
2019-02-28T16:13:12.820Z,3.80
2019-02-28T16:15:43.247Z,5.03
2019-02-28T16:18:12.074Z,4.80
2019-02-28T16:20:40.704Z,4.87
2019-02-28T16:23:08.872Z,5.23
2019-02-28T16:25:37.584Z,6.73
2019-02-28T16:28:08.901Z,5.00
2019-02-28T16:30:38.072Z,4.63
2019-02-28T16:33:06.328Z,5.70
2019-02-28T16:35:34.476Z,5.03
2019-02-28T16:38:02.784Z,4.97
2019-02-28T16:40:31.490Z,5.57
2019-02-28T16:42:59.722Z,4.97
2019-02-28T16:45:32.696Z,6.13
2019-02-28T16:48:02.986Z,5.53
2019-02-28T16:50:31.236Z,5.40
2019-02-28T16:52:59.720Z,5.07
2019-02-28T16:55:31.023Z,5.97
2019-02-28T16:57:57.741Z,5.27
2019-02-28T17:00:26.088Z,5.80
2019-02-28T17:02:54.433Z,5.77
2019-02-28T17:05:26.603Z,4.80
2019-02-28T17:07:52.400Z,5.60
2019-02-28T17:10:24.892Z,5.57
2019-02-28T17:13:03.003Z,4.83
2019-02-28T17:15:35.224Z,4.67
2019-02-28T17:18:21.399Z,5.60
2019-02-28T17:20:49.866Z,4.40
2019-02-28T17:23:18.727Z,4.57
2019-02-28T17:25:48.568Z,3.90
2019-02-28T17:28:34.712Z,4.40
2019-02-28T17:31:20.874Z,3.57
2019-02-28T17:33:52.112Z,4.83
2019-02-28T17:36:20.596Z,3.93
2019-02-28T17:38:57.793Z,3.37
2019-02-28T17:41:26.157Z,3.70
2019-02-28T17:44:13.332Z,2.97
2019-02-28T17:46:46.516Z,3.73
2019-02-28T17:49:23.319Z,3.50
2019-02-28T17:51:57.381Z,3.30
2019-02-28T17:54:31.908Z,4.10
2019-02-28T17:57:06.264Z,3.33
2019-02-28T17:59:38.733Z,4.37
2019-02-28T18:02:07.545Z,5.00
2019-02-28T18:04:56.092Z,4.43
2019-02-28T18:07:41.537Z,4.70
2019-02-28T18:10:29.881Z,4.80
2019-02-28T18:13:11.636Z,5.60
2019-02-28T18:15:47.141Z,6.30
2019-02-28T18:18:26.766Z,6.00
2019-02-28T18:21:17.336Z,6.27
2019-02-28T18:23:47.376Z,5.50
2019-02-28T18:26:17.156Z,6.20
2019-02-28T18:28:50.277Z,5.87
2019-02-28T18:31:19.099Z,6.70
2019-02-28T18:33:49.715Z,5.73
2019-02-28T18:36:19.584Z,5.53
2019-02-28T18:38:47.716Z,5.67
2019-02-28T18:41:16.117Z,6.07
2019-02-28T18:43:44.365Z,7.17
2019-02-28T18:46:12.805Z,7.23
2019-02-28T18:48:40.965Z,6.40
2019-02-28T18:51:09.128Z,7.27
2019-02-28T18:53:37.425Z,6.70
2019-02-28T18:56:06.067Z,6.27
2019-02-28T18:58:39.940Z,6.97
2019-02-28T19:01:11.091Z,7.27
2019-02-28T19:03:42.123Z,6.37
2019-02-28T19:06:10.260Z,7.30
2019-02-28T19:09:05.203Z,7.50
2019-02-28T19:11:46.413Z,8.20
2019-02-28T19:14:19.455Z,7.87
2019-02-28T19:17:02.068Z,7.20
2019-02-28T19:22:17.925Z,7.97
2019-02-28T19:24:47.391Z,8.13
2019-02-28T19:27:15.587Z,8.57
2019-02-28T19:29:49.626Z,7.63
2019-02-28T19:32:16.110Z,8.07
2019-02-28T19:34:55.104Z,9.23
2019-02-28T19:37:24.339Z,8.33
2019-02-28T19:39:52.483Z,8.00
2019-02-28T19:42:24.139Z,7.60
2019-02-28T19:45:01.285Z,7.67
2019-02-28T19:47:34.669Z,8.43
2019-02-28T19:50:12.044Z,8.87
2019-02-28T19:52:43.325Z,8.43
2019-02-28T19:55:14.819Z,8.07
2019-02-28T19:57:42.971Z,9.17
2019-02-28T20:00:12.741Z,8.33
2019-02-28T20:02:40.914Z,8.40
2019-02-28T20:05:10.501Z,8.43
2019-02-28T20:07:38.656Z,10.00
2019-02-28T20:10:11.438Z,8.33
2019-02-28T20:12:39.608Z,8.50
2019-02-28T20:15:12.002Z,10.07
2019-02-28T20:17:39.891Z,8.60
2019-02-28T20:20:12.656Z,8.63
2019-02-28T20:22:42.725Z,8.93
2019-02-28T20:25:11.743Z,8.93
2019-02-28T20:27:39.884Z,8.33
2019-02-28T20:30:12.335Z,9.50
2019-02-28T20:32:42.163Z,8.97
2019-02-28T20:35:10.478Z,9.73
2019-02-28T20:37:39.254Z,9.77
2019-02-28T20:40:11.788Z,7.33
2019-02-28T20:42:40.013Z,8.60
2019-02-28T20:45:09.229Z,9.50
2019-02-28T20:47:37.422Z,8.70
2019-02-28T20:50:07.184Z,7.73
2019-02-28T20:52:35.325Z,7.70
2019-02-28T20:55:03.869Z,8.47
2019-02-28T20:57:32.012Z,10.70
2019-02-28T21:00:01.323Z,7.97
2019-02-28T21:02:29.709Z,9.00
2019-02-28T21:04:57.832Z,7.70
2019-02-28T21:07:25.975Z,7.83
2019-02-28T21:09:54.197Z,8.43
2019-02-28T21:12:22.344Z,8.63
2019-02-28T21:14:50.478Z,8.33
2019-02-28T21:17:18.757Z,7.97
2019-02-28T21:19:46.898Z,8.37
2019-02-28T21:22:15.037Z,8.17
2019-02-28T21:24:43.220Z,9.40
2019-02-28T21:27:11.344Z,7.83
2019-02-28T21:29:39.480Z,8.10
2019-02-28T21:32:07.649Z,9.30
2019-02-28T21:34:36.248Z,8.43
2019-02-28T21:37:04.389Z,8.57
2019-02-28T21:39:32.632Z,8.63
2019-02-28T21:42:00.983Z,8.23
2019-02-28T21:44:29.124Z,8.43
2019-02-28T21:46:57.294Z,7.13
2019-02-28T21:49:25.436Z,7.83
2019-02-28T21:51:53.590Z,8.63
2019-02-28T21:54:21.756Z,8.33
2019-02-28T21:56:49.892Z,8.23
2019-02-28T21:59:18.037Z,7.70
2019-02-28T22:01:46.205Z,9.97
2019-02-28T22:04:14.344Z,7.93
2019-02-28T22:06:42.486Z,7.73
2019-02-28T22:09:10.753Z,8.20
2019-02-28T22:11:38.861Z,8.57
2019-02-28T22:14:06.998Z,8.73
2019-02-28T22:16:35.188Z,8.53
2019-02-28T22:19:03.376Z,9.27
2019-02-28T22:21:31.517Z,8.30
2019-02-28T22:23:59.725Z,9.57
2019-02-28T22:26:28.117Z,9.67
2019-02-28T22:28:56.256Z,10.07
2019-02-28T22:31:26.236Z,11.07
2019-02-28T22:34:05.107Z,11.57
2019-02-28T22:36:34.923Z,12.87
2019-02-28T22:39:03.835Z,12.50
2019-02-28T22:41:31.981Z,12.57
2019-02-28T22:44:00.147Z,13.07
2019-02-28T22:46:28.286Z,12.40
2019-02-28T22:48:56.744Z,11.90
2019-02-28T22:51:24.944Z,12.97
2019-02-28T22:53:53.089Z,12.70
2019-02-28T22:56:21.344Z,15.77
2019-02-28T22:58:49.528Z,17.03
2019-02-28T23:01:22.300Z,17.10
2019-02-28T23:03:50.437Z,17.97
2019-02-28T23:06:18.628Z,19.10
2019-02-28T23:08:46.774Z,20.80
2019-02-28T23:11:14.916Z,23.93
2019-02-28T23:13:43.082Z,24.43
2019-02-28T23:16:11.218Z,27.70
2019-02-28T23:18:39.514Z,31.93
2019-02-28T23:21:07.680Z,32.27
2019-02-28T23:23:35.823Z,34.90
2019-02-28T23:26:06.381Z,38.00
2019-02-28T23:28:36.240Z,41.10
2019-02-28T23:31:22.804Z,40.93
2019-02-28T23:33:51.140Z,48.20
2019-02-28T23:36:19.287Z,50.00
2019-02-28T23:38:47.690Z,56.17
2019-02-28T23:41:15.924Z,57.83
2019-02-28T23:43:44.069Z,61.07
2019-02-28T23:46:12.223Z,63.50
2019-02-28T23:48:42.330Z,60.77
2019-02-28T23:51:10.185Z,62.37
2019-02-28T23:53:38.328Z,63.50
2019-02-28T23:56:06.812Z,61.73
2019-02-28T23:58:34.954Z,59.30
